Time;durP1;ratioP1;P1;durP2;ratioP2;P2;SDS_P1;SDS_P2;PMS_P1;PMS_P2;Temp;Humidity;BMP_temperature;BMP_pressure;BME280_temperature;BME280_humidity;BME280_pressure;Samples;Min_cycle;Max_cycle;Signal;HPM_P1;HPM_P2
2021/01/31 00:00:43;;;;;;;17.10;10.88;;;2.40;99.90;;;;;;5027063;28;20369;-72
2021/01/31 00:03:12;;;;;;;18.80;11.85;;;2.40;99.90;;;;;;5051522;28;20045;-72
2021/01/31 00:05:38;;;;;;;18.02;9.77;;;2.40;99.90;;;;;;5041807;28;20086;-72
2021/01/31 00:08:08;;;;;;;17.08;10.75;;;2.30;99.90;;;;;;5045631;28;20390;-72
2021/01/31 00:10:34;;;;;;;16.73;10.25;;;2.20;99.90;;;;;;5043151;28;20980;-72
2021/01/31 00:13:01;;;;;;;16.20;10.23;;;2.20;99.90;;;;;;5046011;28;20037;-72
2021/01/31 00:15:30;;;;;;;15.02;9.90;;;2.20;99.90;;;;;;5048725;28;20032;-72
2021/01/31 00:17:56;;;;;;;17.88;11.18;;;2.30;99.90;;;;;;5031492;28;20374;-72
2021/01/31 00:20:26;;;;;;;18.15;10.95;;;2.40;99.90;;;;;;5024657;28;20017;-72
2021/01/31 00:22:52;;;;;;;18.67;10.65;;;2.40;99.90;;;;;;5048067;28;20481;-72
2021/01/31 00:25:18;;;;;;;16.77;9.90;;;2.30;99.90;;;;;;5045020;28;20051;-72
2021/01/31 00:27:44;;;;;;;19.40;10.05;;;2.30;99.90;;;;;;5039386;28;20122;-72
2021/01/31 00:30:21;;;;;;;20.80;11.18;;;2.30;99.90;;;;;;5044959;28;20060;-72
2021/01/31 00:32:48;;;;;;;17.98;10.88;;;2.30;99.90;;;;;;5046478;28;20037;-72
2021/01/31 00:35:16;;;;;;;20.10;11.90;;;2.20;99.90;;;;;;5048715;28;20107;-72
2021/01/31 00:37:42;;;;;;;18.08;11.40;;;2.20;99.90;;;;;;5042781;28;20405;-73
2021/01/31 00:40:08;;;;;;;19.05;10.55;;;2.20;99.90;;;;;;5046671;28;20021;-73
2021/01/31 00:42:34;;;;;;;18.42;10.85;;;2.30;99.90;;;;;;5048268;28;20071;-72
2021/01/31 00:45:00;;;;;;;21.45;12.35;;;2.20;99.90;;;;;;5048110;28;20503;-72
2021/01/31 00:47:25;;;;;;;17.73;11.52;;;2.10;99.90;;;;;;5047671;28;20021;-73
2021/01/31 00:49:51;;;;;;;19.27;11.60;;;2.20;99.90;;;;;;5048163;28;20032;-72
2021/01/31 00:52:20;;;;;;;18.42;12.55;;;2.30;99.90;;;;;;5046050;28;20131;-72
2021/01/31 00:54:46;;;;;;;20.52;12.27;;;2.20;99.90;;;;;;5027031;28;20040;-72
2021/01/31 00:57:12;;;;;;;20.08;12.02;;;2.20;99.90;;;;;;5028589;28;20033;-72
2021/01/31 00:59:38;;;;;;;19.80;12.65;;;2.20;99.90;;;;;;5047510;28;20028;-72
2021/01/31 01:02:09;;;;;;;19.35;12.30;;;2.10;99.90;;;;;;5044859;28;20030;-72
2021/01/31 01:04:35;;;;;;;24.25;13.00;;;2.10;99.90;;;;;;5043104;28;20504;-72
2021/01/31 01:07:00;;;;;;;20.58;12.95;;;2.10;99.90;;;;;;5047027;28;20025;-73
2021/01/31 01:09:26;;;;;;;18.17;11.75;;;2.20;99.90;;;;;;5040782;28;20032;-73
2021/01/31 01:11:51;;;;;;;21.13;11.93;;;2.10;99.90;;;;;;5049601;28;20464;-72
2021/01/31 01:14:17;;;;;;;22.02;12.63;;;2.20;99.90;;;;;;5043761;28;20024;-73
2021/01/31 01:16:43;;;;;;;20.70;12.55;;;2.10;99.90;;;;;;5045782;28;20059;-72
2021/01/31 01:19:08;;;;;;;21.27;12.55;;;2.10;99.90;;;;;;5047123;28;20115;-73
2021/01/31 01:21:34;;;;;;;22.35;13.23;;;2.10;99.90;;;;;;5048705;28;20021;-72
2021/01/31 01:24:01;;;;;;;22.48;13.60;;;2.20;99.90;;;;;;5043111;28;20023;-72
2021/01/31 01:26:31;;;;;;;19.08;12.13;;;2.20;99.90;;;;;;5047772;28;20021;-72
2021/01/31 01:28:57;;;;;;;21.90;13.00;;;2.10;99.90;;;;;;5043944;28;20436;-72
2021/01/31 01:31:24;;;;;;;22.00;13.20;;;2.10;99.90;;;;;;5044753;28;20474;-72
2021/01/31 01:33:50;;;;;;;22.65;13.50;;;2.20;99.90;;;;;;5041764;28;20029;-73
2021/01/31 01:36:16;;;;;;;21.33;12.02;;;2.10;99.90;;;;;;5042593;28;20025;-73
2021/01/31 01:38:42;;;;;;;23.50;13.43;;;2.00;99.90;;;;;;5047408;28;20036;-73
2021/01/31 01:41:08;;;;;;;21.90;13.30;;;2.00;99.90;;;;;;5044778;28;20099;-72
2021/01/31 01:43:33;;;;;;;20.73;12.52;;;1.90;99.90;;;;;;5049570;28;20025;-72
2021/01/31 01:46:17;;;;;;;22.83;13.90;;;2.00;99.90;;;;;;5049922;28;20063;-72
2021/01/31 01:48:50;;;;;;;22.88;12.73;;;2.00;99.90;;;;;;5048389;28;20036;-72
2021/01/31 01:51:21;;;;;;;22.08;13.10;;;1.80;99.90;;;;;;5047485;28;20112;-73
2021/01/31 01:53:47;;;;;;;23.08;14.10;;;1.90;99.90;;;;;;5043042;28;20044;-73
2021/01/31 01:56:27;;;;;;;25.27;14.02;;;1.80;99.90;;;;;;5045894;28;20021;-73
2021/01/31 01:58:56;;;;;;;23.17;14.00;;;1.80;99.90;;;;;;5046294;28;20462;-73
2021/01/31 02:01:23;;;;;;;24.35;13.77;;;1.80;99.90;;;;;;5048598;28;20060;-73
2021/01/31 02:03:54;;;;;;;23.50;12.93;;;1.70;99.90;;;;;;5050268;28;20028;-73
2021/01/31 02:06:23;;;;;;;23.30;13.77;;;1.70;99.90;;;;;;5030390;28;20029;-73
2021/01/31 02:08:50;;;;;;;22.23;13.20;;;1.80;99.90;;;;;;5051958;28;20074;-73
2021/01/31 02:11:17;;;;;;;26.17;16.13;;;1.70;99.90;;;;;;5049272;28;20037;-73
2021/01/31 02:13:47;;;;;;;27.45;15.85;;;1.70;99.90;;;;;;5048683;28;20033;-72
2021/01/31 02:16:38;;;;;;;22.48;13.35;;;1.70;99.90;;;;;;5047419;28;20053;-73
2021/01/31 02:19:30;;;;;;;24.77;14.77;;;1.70;99.90;;;;;;5054928;28;20380;-72
2021/01/31 02:22:29;;;;;;;28.40;15.15;;;1.70;99.90;;;;;;5052966;28;20033;-72
2021/01/31 02:25:13;;;;;;;29.08;15.13;;;1.60;99.90;;;;;;5049569;28;20511;-72
2021/01/31 02:28:06;;;;;;;25.15;15.23;;;1.60;99.90;;;;;;5048464;28;20025;-72
2021/01/31 02:31:02;;;;;;;26.83;15.27;;;1.50;99.90;;;;;;5046568;28;20039;-72
2021/01/31 02:33:51;;;;;;;28.92;15.70;;;1.60;99.90;;;;;;5051264;28;20049;-72
2021/01/31 02:36:35;;;;;;;26.13;16.15;;;1.50;99.90;;;;;;5051931;28;20024;-72
2021/01/31 02:39:13;;;;;;;24.27;14.75;;;1.40;99.90;;;;;;5034615;28;20087;-72
2021/01/31 02:41:56;;;;;;;25.83;14.48;;;1.60;99.90;;;;;;5049731;28;20061;-72
2021/01/31 02:44:24;;;;;;;25.90;16.15;;;1.60;99.90;;;;;;5025749;28;20112;-72
2021/01/31 02:46:58;;;;;;;26.92;16.25;;;1.60;99.90;;;;;;5047748;28;20017;-72
2021/01/31 02:49:26;;;;;;;25.90;15.63;;;1.50;99.90;;;;;;5050473;28;20024;-72
2021/01/31 02:52:12;;;;;;;28.65;16.05;;;1.40;99.90;;;;;;5050577;28;20071;-72
2021/01/31 02:54:45;;;;;;;28.13;16.08;;;1.40;99.90;;;;;;5022825;28;20377;-72
2021/01/31 02:57:18;;;;;;;25.48;15.48;;;1.40;99.90;;;;;;5048778;28;20090;-72
2021/01/31 03:00:04;;;;;;;28.13;16.58;;;1.40;99.90;;;;;;5049249;28;20049;-72
2021/01/31 03:02:35;;;;;;;25.73;15.48;;;1.40;99.90;;;;;;5048721;28;20083;-71
2021/01/31 03:05:06;;;;;;;26.70;16.13;;;1.40;99.90;;;;;;5046414;28;20584;-72
2021/01/31 03:07:39;;;;;;;27.60;15.13;;;1.40;99.90;;;;;;5046845;28;20429;-72
2021/01/31 03:10:11;;;;;;;27.33;15.80;;;1.20;99.90;;;;;;5050266;28;20440;-72
2021/01/31 03:12:47;;;;;;;25.52;14.90;;;1.30;99.90;;;;;;5046753;28;20052;-72
2021/01/31 03:15:21;;;;;;;26.63;15.40;;;1.30;99.90;;;;;;5047373;28;20045;-72
2021/01/31 03:17:58;;;;;;;32.03;16.38;;;1.30;99.90;;;;;;5050126;28;20029;-72
2021/01/31 03:20:37;;;;;;;25.27;15.05;;;1.30;99.90;;;;;;5044553;28;20028;-72
2021/01/31 03:23:39;;;;;;;27.92;15.50;;;1.30;99.90;;;;;;5043356;28;20048;-72
2021/01/31 03:26:30;;;;;;;28.80;15.35;;;1.30;99.90;;;;;;5048537;28;20034;-71
2021/01/31 03:28:56;;;;;;;34.35;15.63;;;1.10;99.90;;;;;;5044697;28;20490;-72
2021/01/31 03:31:23;;;;;;;27.65;14.70;;;1.20;99.90;;;;;;5047828;28;20090;-74
2021/01/31 03:33:56;;;;;;;29.98;16.02;;;1.10;99.90;;;;;;5047060;28;20422;-71
2021/01/31 03:36:25;;;;;;;25.77;14.50;;;1.20;99.90;;;;;;5048209;28;20052;-71
2021/01/31 03:38:53;;;;;;;26.35;14.77;;;1.20;99.90;;;;;;5042054;28;20030;-71
2021/01/31 03:41:22;;;;;;;31.35;16.27;;;1.30;99.90;;;;;;5048345;28;20051;-71
2021/01/31 03:43:48;;;;;;;29.45;16.23;;;1.30;99.90;;;;;;5029745;28;20025;-72
2021/01/31 03:46:23;;;;;;;27.27;15.77;;;1.30;99.90;;;;;;5047881;28;20083;-71
2021/01/31 03:49:00;;;;;;;26.40;15.88;;;1.20;99.90;;;;;;5041230;28;20504;-72
2021/01/31 03:51:29;;;;;;;30.02;16.10;;;1.20;99.90;;;;;;5046023;28;20035;-72
2021/01/31 03:53:55;;;;;;;29.05;15.73;;;1.10;99.90;;;;;;5040667;28;20037;-71
2021/01/31 03:56:29;;;;;;;31.10;16.40;;;1.10;99.90;;;;;;5047265;28;20044;-71
2021/01/31 03:58:56;;;;;;;30.75;15.90;;;1.20;99.90;;;;;;5039527;28;20116;-71
2021/01/31 04:01:25;;;;;;;26.60;15.55;;;1.10;99.90;;;;;;5047776;28;20025;-71
2021/01/31 04:04:04;;;;;;;32.78;15.98;;;1.20;99.90;;;;;;5046591;28;20029;-72
2021/01/31 04:06:33;;;;;;;28.48;16.13;;;1.10;99.90;;;;;;5049289;28;20044;-71
2021/01/31 04:08:59;;;;;;;39.85;16.23;;;1.10;99.90;;;;;;5048009;28;20064;-72
2021/01/31 04:11:42;;;;;;;28.77;16.67;;;1.10;99.90;;;;;;5049277;28;20501;-71
2021/01/31 04:14:24;;;;;;;28.75;17.27;;;1.10;99.90;;;;;;5042745;28;20032;-71
2021/01/31 04:16:51;;;;;;;28.52;15.60;;;1.00;99.90;;;;;;5049056;28;20021;-71
2021/01/31 04:19:18;;;;;;;29.10;15.60;;;1.00;99.90;;;;;;5047850;28;20044;-72
2021/01/31 04:21:44;;;;;;;28.70;16.00;;;0.90;99.90;;;;;;5047505;28;20017;-72
2021/01/31 04:24:10;;;;;;;31.45;17.98;;;0.90;99.90;;;;;;5047685;28;20032;-71
2021/01/31 04:26:36;;;;;;;30.55;17.13;;;0.80;99.90;;;;;;5047846;28;20457;-71
2021/01/31 04:29:03;;;;;;;31.17;16.02;;;0.80;99.90;;;;;;5046352;28;20025;-71
2021/01/31 04:31:29;;;;;;;29.25;16.40;;;1.00;99.90;;;;;;5043903;28;20175;-72
2021/01/31 04:33:54;;;;;;;26.45;15.70;;;0.90;99.90;;;;;;5030216;28;20048;-72
2021/01/31 04:36:22;;;;;;;30.08;16.17;;;0.80;99.90;;;;;;5047114;28;20029;-72
2021/01/31 04:38:48;;;;;;;29.23;16.10;;;0.90;99.90;;;;;;5045237;28;20033;-72
2021/01/31 04:41:14;;;;;;;26.77;15.65;;;0.90;99.90;;;;;;5047280;28;20111;-72
2021/01/31 04:43:40;;;;;;;28.58;15.70;;;1.00;99.90;;;;;;5051907;28;20118;-72
2021/01/31 04:46:09;;;;;;;31.15;16.55;;;0.90;99.90;;;;;;5044822;28;20485;-72
2021/01/31 04:48:45;;;;;;;29.05;16.45;;;0.90;99.90;;;;;;5046882;28;20032;-72
2021/01/31 04:51:41;;;;;;;31.75;17.23;;;1.00;99.90;;;;;;5049034;28;20504;-72
2021/01/31 04:54:13;;;;;;;30.10;16.10;;;0.90;99.90;;;;;;5048959;28;20025;-72
2021/01/31 04:56:49;;;;;;;29.17;16.77;;;0.90;99.90;;;;;;5048138;28;20412;-72
2021/01/31 04:59:17;;;;;;;33.85;17.20;;;0.90;99.90;;;;;;5040269;28;20056;-72
2021/01/31 05:01:43;;;;;;;30.15;16.30;;;0.80;99.90;;;;;;5048564;28;20469;-72
2021/01/31 05:04:11;;;;;;;26.65;15.98;;;0.80;99.90;;;;;;5048462;28;20028;-72
2021/01/31 05:06:42;;;;;;;27.83;16.23;;;0.90;99.90;;;;;;5049010;28;20040;-72
2021/01/31 05:09:20;;;;;;;30.52;16.38;;;0.80;99.90;;;;;;5049947;28;20376;-72
2021/01/31 05:11:52;;;;;;;31.52;16.15;;;0.60;99.90;;;;;;5032906;28;20463;-72
2021/01/31 05:15:01;;;;;;;33.00;17.13;;;0.60;99.90;;;;;;5044121;28;20021;-72
2021/01/31 05:17:27;;;;;;;29.45;16.75;;;0.70;99.90;;;;;;5048164;28;20370;-72
2021/01/31 05:19:53;;;;;;;29.27;15.85;;;0.70;99.90;;;;;;5044001;28;20064;-72
2021/01/31 05:22:25;;;;;;;29.35;15.63;;;0.80;99.90;;;;;;5048367;28;20044;-72
2021/01/31 05:24:52;;;;;;;31.25;15.82;;;0.80;99.90;;;;;;5051855;28;20052;-72
2021/01/31 05:27:18;;;;;;;30.33;16.52;;;0.70;99.90;;;;;;5046717;28;20057;-72
2021/01/31 05:29:44;;;;;;;31.00;17.77;;;0.70;99.90;;;;;;5045757;28;20512;-72
2021/01/31 05:32:13;;;;;;;30.45;17.83;;;0.60;99.90;;;;;;5041511;28;20490;-72
2021/01/31 05:34:42;;;;;;;29.90;17.20;;;0.50;99.90;;;;;;5046788;28;20043;-73
2021/01/31 05:37:15;;;;;;;27.48;16.30;;;0.50;99.90;;;;;;5047964;28;20029;-72
2021/01/31 05:39:54;;;;;;;30.25;17.27;;;0.50;99.90;;;;;;5045906;28;20103;-72
2021/01/31 05:42:26;;;;;;;30.58;17.35;;;0.50;99.90;;;;;;5047566;28;20051;-72
2021/01/31 05:45:01;;;;;;;30.95;18.17;;;0.60;99.90;;;;;;5052422;28;20029;-71
2021/01/31 05:47:36;;;;;;;30.15;17.35;;;0.70;99.90;;;;;;5048693;28;20025;-72
2021/01/31 05:50:20;;;;;;;33.15;17.70;;;0.70;99.90;;;;;;5047601;28;20120;-72
2021/01/31 05:52:45;;;;;;;33.05;18.02;;;0.60;99.90;;;;;;5051337;28;20064;-72
2021/01/31 05:55:31;;;;;;;30.73;17.17;;;0.60;99.90;;;;;;5052424;28;20049;-72
2021/01/31 05:58:23;;;;;;;29.60;16.13;;;0.50;99.90;;;;;;5048730;28;20105;-72
2021/01/31 06:01:05;;;;;;;27.08;15.52;;;0.40;99.90;;;;;;5048940;28;20048;-72
2021/01/31 06:03:31;;;;;;;28.77;16.17;;;0.50;99.90;;;;;;5051883;28;20409;-72
2021/01/31 06:06:24;;;;;;;29.52;16.15;;;0.60;99.90;;;;;;5051257;28;20032;-72
2021/01/31 06:08:52;;;;;;;38.50;17.00;;;0.50;99.90;;;;;;5048285;28;20022;-71
2021/01/31 06:11:20;;;;;;;32.75;18.42;;;0.40;99.90;;;;;;5035218;28;20166;-72
2021/01/31 06:13:48;;;;;;;28.63;16.80;;;0.50;99.90;;;;;;5048884;28;20066;-71
2021/01/31 06:16:20;;;;;;;32.90;18.23;;;0.50;99.90;;;;;;5051369;28;20025;-72
2021/01/31 06:19:18;;;;;;;29.15;17.45;;;0.50;99.90;;;;;;5044342;28;20017;-72
2021/01/31 06:21:46;;;;;;;32.30;17.90;;;0.50;99.90;;;;;;5006781;28;20098;-72
2021/01/31 06:24:28;;;;;;;32.47;17.70;;;0.50;99.90;;;;;;5049912;28;20029;-71
2021/01/31 06:26:56;;;;;;;27.20;16.33;;;0.50;99.90;;;;;;5049270;28;20021;-71
2021/01/31 06:29:37;;;;;;;33.15;16.80;;;0.50;99.90;;;;;;5050787;28;20028;-72
2021/01/31 06:32:05;;;;;;;30.95;16.42;;;0.60;99.90;;;;;;5030215;28;20501;-72
2021/01/31 06:34:31;;;;;;;32.92;17.23;;;0.50;99.90;;;;;;5053204;28;20071;-72
2021/01/31 06:37:06;;;;;;;27.77;16.25;;;0.50;99.90;;;;;;5044140;28;20021;-71
2021/01/31 06:40:13;;;;;;;29.48;16.35;;;0.50;99.90;;;;;;5051723;28;20032;-72
2021/01/31 06:42:50;;;;;;;31.10;16.80;;;0.40;99.90;;;;;;4970920;28;20051;-71
2021/01/31 06:45:19;;;;;;;30.02;16.33;;;0.40;99.90;;;;;;4956434;28;20045;-72
2021/01/31 06:48:07;;;;;;;31.00;16.45;;;0.30;99.90;;;;;;5017185;28;20503;-72
2021/01/31 06:50:53;;;;;;;32.78;16.88;;;0.30;99.90;;;;;;5049767;28;20071;-72
2021/01/31 06:53:57;;;;;;;32.67;17.05;;;0.30;99.90;;;;;;5005505;28;20052;-72
2021/01/31 06:56:44;;;;;;;30.50;15.50;;;0.30;99.90;;;;;;5046072;28;20029;-72
2021/01/31 06:59:28;;;;;;;33.78;17.42;;;0.20;99.90;;;;;;5021719;28;20026;-71
2021/01/31 07:02:22;;;;;;;33.78;16.27;;;0.20;99.90;;;;;;5051640;28;20359;-72
2021/01/31 07:05:02;;;;;;;33.92;17.10;;;0.30;99.90;;;;;;5044065;28;20021;-72
2021/01/31 07:08:04;;;;;;;31.73;16.75;;;0.30;99.90;;;;;;5050948;28;20075;-72
2021/01/31 07:10:50;;;;;;;30.73;16.85;;;0.20;99.90;;;;;;5042140;28;20507;-71
2021/01/31 07:14:01;;;;;;;34.00;18.35;;;0.20;99.90;;;;;;5045867;28;20136;-72
2021/01/31 07:16:57;;;;;;;28.77;16.52;;;0.20;99.90;;;;;;5034878;28;20048;-72
2021/01/31 07:19:46;;;;;;;33.22;18.05;;;0.10;99.90;;;;;;5048449;28;20111;-72
2021/01/31 07:22:17;;;;;;;37.45;19.92;;;0.10;99.90;;;;;;5049907;28;20097;-72
2021/01/31 07:24:59;;;;;;;36.13;18.17;;;0.20;99.90;;;;;;5026180;28;20148;-72
2021/01/31 07:27:51;;;;;;;34.87;16.97;;;0.10;99.90;;;;;;5033513;28;20033;-72
2021/01/31 07:30:24;;;;;;;35.45;18.88;;;0.10;99.90;;;;;;5048583;28;20256;-72
2021/01/31 07:33:05;;;;;;;36.20;17.73;;;0.20;99.90;;;;;;5038914;28;20572;-71
2021/01/31 07:35:39;;;;;;;35.28;18.38;;;0.10;99.90;;;;;;5047328;28;20057;-73
2021/01/31 07:38:20;;;;;;;34.83;17.67;;;0.20;99.90;;;;;;5049408;28;20050;-72
2021/01/31 07:40:52;;;;;;;33.47;18.20;;;0.10;99.90;;;;;;5050565;28;20116;-72
2021/01/31 07:43:18;;;;;;;33.28;17.50;;;0.10;99.90;;;;;;5044968;28;20400;-73
2021/01/31 07:45:44;;;;;;;32.58;17.23;;;0.00;99.90;;;;;;5047642;28;20035;-73
2021/01/31 07:48:31;;;;;;;36.17;18.00;;;0.00;99.90;;;;;;5051553;28;20051;-72
2021/01/31 07:50:59;;;;;;;39.80;18.10;;;0.10;99.90;;;;;;5051972;28;20108;-72
2021/01/31 07:53:33;;;;;;;36.97;18.05;;;0.20;99.90;;;;;;5046095;28;20041;-72
2021/01/31 07:56:31;;;;;;;35.55;18.60;;;0.30;99.90;;;;;;5044794;28;20465;-72
2021/01/31 07:59:09;;;;;;;37.38;19.70;;;0.30;99.90;;;;;;5041289;28;20032;-72
2021/01/31 08:01:41;;;;;;;33.50;18.58;;;0.30;99.90;;;;;;5049388;28;20103;-72
2021/01/31 08:04:16;;;;;;;35.22;17.48;;;0.30;99.90;;;;;;5047288;28;20025;-72
2021/01/31 08:06:49;;;;;;;35.47;18.05;;;0.40;99.90;;;;;;5048338;28;20377;-72
2021/01/31 08:09:27;;;;;;;36.22;19.23;;;0.40;99.90;;;;;;5051589;28;20024;-72
2021/01/31 08:12:12;;;;;;;33.75;17.88;;;0.50;99.90;;;;;;5028214;28;20499;-72
2021/01/31 08:15:15;;;;;;;37.10;18.27;;;0.60;99.90;;;;;;5040647;28;20063;-72
2021/01/31 08:17:56;;;;;;;33.70;17.63;;;0.40;99.90;;;;;;5045613;28;20043;-72
2021/01/31 08:20:27;;;;;;;35.13;17.08;;;0.50;99.90;;;;;;5047481;28;20067;-72
2021/01/31 08:23:25;;;;;;;32.97;17.35;;;0.40;99.90;;;;;;5048976;28;20047;-72
2021/01/31 08:25:56;;;;;;;33.70;17.40;;;0.40;99.90;;;;;;5015149;28;20063;-72
2021/01/31 08:28:30;;;;;;;37.40;17.48;;;0.50;99.90;;;;;;5043132;28;20037;-71
2021/01/31 08:31:04;;;;;;;31.35;16.25;;;0.50;99.90;;;;;;5049763;28;20107;-72
2021/01/31 08:33:35;;;;;;;33.60;17.08;;;0.60;99.90;;;;;;5045537;28;20033;-72
2021/01/31 08:36:04;;;;;;;31.08;16.23;;;0.60;99.90;;;;;;5044288;28;20057;-73
2021/01/31 08:38:32;;;;;;;29.30;15.30;;;0.80;99.90;;;;;;5028260;28;20025;-72
2021/01/31 08:41:01;;;;;;;29.67;16.83;;;0.90;99.90;;;;;;5044365;28;20090;-72
2021/01/31 08:43:41;;;;;;;28.50;15.82;;;1.00;99.90;;;;;;5048677;28;20029;-72
2021/01/31 08:46:23;;;;;;;27.80;15.77;;;1.20;99.90;;;;;;5044785;28;20053;-70
2021/01/31 08:49:08;;;;;;;33.08;17.17;;;1.20;99.90;;;;;;5049374;28;20082;-72
2021/01/31 08:51:36;;;;;;;29.30;15.75;;;1.20;99.90;;;;;;5044350;28;20494;-72
2021/01/31 08:54:17;;;;;;;30.38;14.90;;;1.30;99.90;;;;;;5044614;28;20075;-72
2021/01/31 08:56:47;;;;;;;27.30;15.18;;;1.40;99.90;;;;;;5042166;28;20358;-72
2021/01/31 08:59:18;;;;;;;28.63;16.05;;;1.50;99.90;;;;;;5046016;28;20064;-71
2021/01/31 09:02:14;;;;;;;28.70;16.40;;;1.40;99.90;;;;;;5042289;28;20531;-72
2021/01/31 09:04:53;;;;;;;26.23;14.68;;;1.30;99.90;;;;;;5045317;28;20026;-72
2021/01/31 09:07:27;;;;;;;26.45;14.77;;;1.40;99.90;;;;;;5042639;28;20073;-72
2021/01/31 09:09:59;;;;;;;27.20;15.43;;;1.40;99.90;;;;;;5042155;28;20033;-72
2021/01/31 09:12:25;;;;;;;31.45;15.88;;;1.40;99.90;;;;;;5045163;28;20405;-72
2021/01/31 09:14:53;;;;;;;30.40;16.13;;;1.60;99.90;;;;;;5046008;28;20025;-72
2021/01/31 09:17:26;;;;;;;27.48;14.88;;;1.60;99.90;;;;;;5044693;28;20108;-72
2021/01/31 09:20:09;;;;;;;31.58;16.17;;;1.60;99.90;;;;;;5047298;28;20033;-72
2021/01/31 09:22:37;;;;;;;28.77;15.57;;;1.60;99.90;;;;;;5048243;28;20377;-72
2021/01/31 09:25:05;;;;;;;31.02;15.68;;;1.70;99.90;;;;;;5048497;28;20276;-72
2021/01/31 09:27:32;;;;;;;30.90;15.75;;;1.70;99.90;;;;;;5043089;28;20079;-71
2021/01/31 09:30:01;;;;;;;26.13;15.27;;;1.60;99.90;;;;;;5047824;28;20104;-72
2021/01/31 09:32:32;;;;;;;28.88;15.27;;;1.60;99.90;;;;;;5046577;28;20045;-72
2021/01/31 09:34:59;;;;;;;26.23;14.80;;;1.70;99.90;;;;;;5045712;28;20021;-72
2021/01/31 09:37:26;;;;;;;28.58;14.40;;;1.80;99.90;;;;;;5045662;28;20035;-72
2021/01/31 09:39:54;;;;;;;22.73;13.68;;;1.90;99.90;;;;;;5045313;28;20363;-72
2021/01/31 09:42:21;;;;;;;28.13;14.90;;;1.90;99.90;;;;;;5045263;28;20439;-72
2021/01/31 09:45:21;;;;;;;27.58;15.18;;;2.00;99.90;;;;;;5043226;28;20053;-72
2021/01/31 09:47:48;;;;;;;28.73;15.90;;;2.00;99.90;;;;;;5038824;28;20061;-72
2021/01/31 09:50:14;;;;;;;26.65;15.48;;;2.10;99.90;;;;;;5050949;28;20032;-72
2021/01/31 09:52:45;;;;;;;29.50;16.02;;;2.20;99.90;;;;;;5044489;28;20107;-72
2021/01/31 09:55:44;;;;;;;27.65;14.48;;;2.30;99.90;;;;;;5047781;28;20028;-72
2021/01/31 09:58:24;;;;;;;26.83;15.00;;;2.20;99.90;;;;;;5013053;28;20497;-72
2021/01/31 10:00:51;;;;;;;28.50;14.32;;;2.20;99.90;;;;;;5047796;28;20035;-72
2021/01/31 10:03:31;;;;;;;28.02;14.85;;;2.30;99.90;;;;;;5033365;28;20009;-72
2021/01/31 10:06:15;;;;;;;30.20;14.15;;;2.40;99.90;;;;;;5044463;28;20163;-72
2021/01/31 10:08:55;;;;;;;24.50;13.80;;;2.30;99.90;;;;;;5047802;28;20028;-72
2021/01/31 10:11:33;;;;;;;27.50;14.00;;;2.30;99.90;;;;;;5046537;28;20485;-72
2021/01/31 10:14:00;;;;;;;25.92;14.82;;;2.50;99.90;;;;;;5024680;28;20029;-72
2021/01/31 10:16:31;;;;;;;26.45;14.23;;;2.70;99.90;;;;;;5049177;28;20496;-72
2021/01/31 10:19:18;;;;;;;29.35;16.20;;;2.80;99.90;;;;;;5051290;28;20101;-72
2021/01/31 10:21:49;;;;;;;25.38;14.15;;;2.80;99.90;;;;;;5051383;28;20025;-73
2021/01/31 10:24:24;;;;;;;27.23;14.35;;;2.80;99.90;;;;;;5033464;28;20025;-73
2021/01/31 10:27:06;;;;;;;25.45;13.05;;;2.70;99.90;;;;;;5052553;28;20013;-72
2021/01/31 10:29:33;;;;;;;24.17;13.57;;;2.70;99.90;;;;;;5055289;28;20021;-73
2021/01/31 10:32:17;;;;;;;24.25;12.60;;;2.80;99.90;;;;;;5054064;28;20375;-72
2021/01/31 10:34:43;;;;;;;24.48;13.80;;;2.80;99.90;;;;;;5041074;28;20029;-72
2021/01/31 10:37:14;;;;;;;26.13;13.88;;;2.90;99.90;;;;;;5055086;28;20488;-72
2021/01/31 10:39:40;;;;;;;22.70;13.05;;;2.90;99.90;;;;;;5054126;28;20027;-73
2021/01/31 10:42:05;;;;;;;23.20;12.00;;;2.90;99.90;;;;;;5054358;28;20156;-72
2021/01/31 10:44:32;;;;;;;22.52;13.40;;;2.90;99.90;;;;;;5054413;28;20404;-72
2021/01/31 10:46:58;;;;;;;25.40;13.18;;;2.90;99.90;;;;;;5054466;28;20552;-72
2021/01/31 10:49:23;;;;;;;25.00;13.18;;;2.90;99.90;;;;;;5054719;28;20096;-72
2021/01/31 10:51:50;;;;;;;22.33;11.77;;;3.00;99.90;;;;;;5054221;28;20424;-73
2021/01/31 10:54:19;;;;;;;25.55;13.98;;;3.10;99.90;;;;;;5031792;28;20025;-73
2021/01/31 10:56:45;;;;;;;20.77;11.77;;;3.20;99.90;;;;;;5046054;28;20473;-72
2021/01/31 10:59:11;;;;;;;22.10;12.63;;;3.30;99.90;;;;;;5054471;28;20032;-73
2021/01/31 11:01:37;;;;;;;23.98;12.43;;;3.30;99.90;;;;;;5054669;28;20383;-73
2021/01/31 11:04:03;;;;;;;22.17;14.07;;;3.30;99.90;;;;;;5054625;28;20040;-72
2021/01/31 11:06:28;;;;;;;22.17;12.40;;;3.30;99.90;;;;;;5054429;28;20036;-73
2021/01/31 11:08:55;;;;;;;22.98;13.13;;;3.20;99.90;;;;;;5054294;28;20504;-72
2021/01/31 11:11:21;;;;;;;23.42;12.82;;;3.20;99.90;;;;;;5049629;28;20022;-73
2021/01/31 11:13:48;;;;;;;21.00;12.23;;;3.20;99.90;;;;;;5033927;28;20114;-73
2021/01/31 11:16:13;;;;;;;22.30;11.85;;;3.20;99.90;;;;;;5019244;28;20084;-72
2021/01/31 11:18:39;;;;;;;22.02;12.15;;;3.10;99.90;;;;;;5049406;28;20527;-72
2021/01/31 11:21:05;;;;;;;22.08;11.68;;;3.10;99.90;;;;;;5036534;28;20057;-73
2021/01/31 11:23:31;;;;;;;24.38;13.35;;;3.20;99.90;;;;;;5054316;28;20026;-73
2021/01/31 11:25:56;;;;;;;19.17;11.50;;;3.20;99.90;;;;;;5053896;28;20085;-73
2021/01/31 11:28:22;;;;;;;23.65;12.13;;;3.30;99.90;;;;;;5053644;28;20535;-72
2021/01/31 11:30:48;;;;;;;16.73;10.27;;;3.40;99.90;;;;;;5054040;28;20428;-73
2021/01/31 11:33:15;;;;;;;19.77;11.43;;;3.30;99.90;;;;;;5027783;28;20033;-72
2021/01/31 11:35:41;;;;;;;17.77;10.98;;;3.40;99.90;;;;;;5047659;28;20025;-73
2021/01/31 11:38:08;;;;;;;20.48;11.73;;;3.40;99.90;;;;;;5052357;28;20021;-73
2021/01/31 11:40:34;;;;;;;18.95;10.63;;;3.50;99.90;;;;;;5054216;28;20025;-73
2021/01/31 11:42:59;;;;;;;18.98;10.90;;;3.30;99.90;;;;;;5053570;28;20045;-73
2021/01/31 11:45:27;;;;;;;19.30;10.35;;;3.50;99.90;;;;;;5054106;28;20013;-73
2021/01/31 11:47:53;;;;;;;21.00;11.63;;;3.50;99.90;;;;;;5053615;28;20033;-73
2021/01/31 11:50:19;;;;;;;19.15;10.85;;;3.70;99.90;;;;;;5053506;28;20058;-72
2021/01/31 11:52:45;;;;;;;17.63;10.18;;;3.70;99.90;;;;;;5052644;28;20025;-73
2021/01/31 11:55:12;;;;;;;18.67;10.20;;;3.60;99.90;;;;;;5053990;28;20535;-73
2021/01/31 11:57:38;;;;;;;18.02;10.68;;;3.80;99.90;;;;;;5053792;28;20032;-73
2021/01/31 12:00:10;;;;;;;16.13;9.73;;;3.90;99.90;;;;;;5053878;28;20025;-73
2021/01/31 12:02:35;;;;;;;16.95;9.52;;;3.90;99.90;;;;;;5034889;28;20774;-73
2021/01/31 12:05:01;;;;;;;14.27;8.73;;;3.90;99.90;;;;;;5050043;28;20138;-73
2021/01/31 12:07:27;;;;;;;18.48;10.20;;;3.80;99.90;;;;;;5050813;28;20082;-73
2021/01/31 12:09:52;;;;;;;17.10;9.82;;;3.80;99.90;;;;;;5052435;28;20377;-72
2021/01/31 12:12:18;;;;;;;16.70;10.00;;;3.90;99.90;;;;;;5040993;28;20108;-73
2021/01/31 12:14:44;;;;;;;16.45;9.63;;;3.80;99.90;;;;;;5047141;28;20032;-73
2021/01/31 12:17:10;;;;;;;13.25;8.57;;;3.90;99.90;;;;;;5037728;28;20029;-72
2021/01/31 12:19:36;;;;;;;15.82;9.45;;;3.80;99.90;;;;;;5032353;28;20033;-73
2021/01/31 12:22:02;;;;;;;17.10;9.18;;;3.90;99.90;;;;;;5045501;28;20135;-73
2021/01/31 12:24:28;;;;;;;15.65;9.50;;;3.90;99.90;;;;;;5045278;28;20036;-73
2021/01/31 12:26:54;;;;;;;16.05;9.07;;;3.90;99.90;;;;;;5024623;28;20025;-72
2021/01/31 12:29:20;;;;;;;17.73;9.45;;;3.90;99.90;;;;;;5047729;28;20517;-73
2021/01/31 12:31:46;;;;;;;16.90;9.70;;;3.90;99.90;;;;;;5044232;28;20080;-72
2021/01/31 12:34:12;;;;;;;17.70;10.15;;;4.00;99.90;;;;;;5048606;28;20418;-73
2021/01/31 12:36:39;;;;;;;14.75;9.68;;;4.00;99.90;;;;;;5036862;28;20033;-73
2021/01/31 12:39:05;;;;;;;16.55;10.10;;;3.90;99.90;;;;;;5033622;28;20116;-73
2021/01/31 12:41:30;;;;;;;17.10;9.85;;;3.90;99.90;;;;;;5045118;28;20103;-73
2021/01/31 12:43:56;;;;;;;16.15;9.85;;;3.90;99.90;;;;;;5041874;28;20029;-73
2021/01/31 12:46:21;;;;;;;17.50;10.23;;;4.10;99.90;;;;;;5040610;28;20033;-73
2021/01/31 12:48:47;;;;;;;16.98;10.48;;;4.10;99.90;;;;;;5046464;28;20517;-73
2021/01/31 12:51:13;;;;;;;17.77;10.60;;;4.10;99.90;;;;;;5051018;28;20083;-73
2021/01/31 12:53:39;;;;;;;16.65;10.50;;;4.20;99.90;;;;;;5037479;28;20478;-73
2021/01/31 12:56:04;;;;;;;17.20;9.73;;;4.10;99.90;;;;;;5047853;28;20021;-73
2021/01/31 12:58:30;;;;;;;17.73;9.98;;;4.10;99.90;;;;;;5035616;28;20036;-73
2021/01/31 13:00:57;;;;;;;15.25;9.57;;;4.10;99.90;;;;;;5039263;28;20048;-73
2021/01/31 13:03:23;;;;;;;15.93;9.02;;;3.90;99.90;;;;;;5047556;28;20029;-73
2021/01/31 13:05:49;;;;;;;14.93;9.98;;;3.80;99.90;;;;;;5045717;28;20049;-72